sensor_id;sensor_type;location;lat;lon;timestamp;P1;durP1;ratioP1;P2;durP2;ratioP2
15645;SDS011;7922;43.622;1.476;2023-03-01T00:00:35;17.57;;;12.27;;
15645;SDS011;7922;43.622;1.476;2023-03-01T00:03:01;13.67;;;10.90;;
15645;SDS011;7922;43.622;1.476;2023-03-01T00:05:26;14.00;;;11.23;;
15645;SDS011;7922;43.622;1.476;2023-03-01T00:07:54;15.27;;;11.37;;
15645;SDS011;7922;43.622;1.476;2023-03-01T00:10:19;15.33;;;11.10;;
15645;SDS011;7922;43.622;1.476;2023-03-01T00:12:45;16.17;;;12.10;;
15645;SDS011;7922;43.622;1.476;2023-03-01T00:15:10;13.10;;;11.57;;
15645;SDS011;7922;43.622;1.476;2023-03-01T00:17:36;15.63;;;12.40;;
15645;SDS011;7922;43.622;1.476;2023-03-01T00:20:01;13.63;;;11.37;;
15645;SDS011;7922;43.622;1.476;2023-03-01T00:22:26;16.37;;;12.00;;
15645;SDS011;7922;43.622;1.476;2023-03-01T00:24:52;16.43;;;12.03;;
15645;SDS011;7922;43.622;1.476;2023-03-01T00:27:17;16.13;;;11.97;;
15645;SDS011;7922;43.622;1.476;2023-03-01T00:29:42;15.83;;;11.80;;
15645;SDS011;7922;43.622;1.476;2023-03-01T00:32:07;15.40;;;12.50;;
15645;SDS011;7922;43.622;1.476;2023-03-01T00:34:33;14.63;;;11.77;;
15645;SDS011;7922;43.622;1.476;2023-03-01T00:36:58;15.47;;;12.63;;
15645;SDS011;7922;43.622;1.476;2023-03-01T00:39:23;14.90;;;12.23;;
15645;SDS011;7922;43.622;1.476;2023-03-01T00:41:48;16.03;;;12.70;;
15645;SDS011;7922;43.622;1.476;2023-03-01T00:44:14;14.20;;;12.13;;
15645;SDS011;7922;43.622;1.476;2023-03-01T00:46:39;16.87;;;12.93;;
15645;SDS011;7922;43.622;1.476;2023-03-01T00:49:04;14.07;;;11.90;;
15645;SDS011;7922;43.622;1.476;2023-03-01T00:51:30;17.37;;;12.57;;
15645;SDS011;7922;43.622;1.476;2023-03-01T00:53:56;15.17;;;11.23;;
15645;SDS011;7922;43.622;1.476;2023-03-01T00:56:23;14.70;;;12.13;;
15645;SDS011;7922;43.622;1.476;2023-03-01T00:58:49;15.80;;;12.80;;
15645;SDS011;7922;43.622;1.476;2023-03-01T01:01:16;15.53;;;12.40;;
15645;SDS011;7922;43.622;1.476;2023-03-01T01:03:48;14.73;;;11.93;;
15645;SDS011;7922;43.622;1.476;2023-03-01T01:06:22;14.63;;;12.03;;
15645;SDS011;7922;43.622;1.476;2023-03-01T01:08:56;15.30;;;12.30;;
15645;SDS011;7922;43.622;1.476;2023-03-01T01:11:22;12.90;;;11.30;;
15645;SDS011;7922;43.622;1.476;2023-03-01T01:13:49;14.50;;;11.20;;
15645;SDS011;7922;43.622;1.476;2023-03-01T01:16:15;13.93;;;11.67;;
15645;SDS011;7922;43.622;1.476;2023-03-01T01:18:42;13.70;;;11.40;;
15645;SDS011;7922;43.622;1.476;2023-03-01T01:21:09;13.47;;;11.13;;
15645;SDS011;7922;43.622;1.476;2023-03-01T01:23:39;17.60;;;12.47;;
15645;SDS011;7922;43.622;1.476;2023-03-01T01:26:07;15.70;;;11.83;;
15645;SDS011;7922;43.622;1.476;2023-03-01T01:28:33;24.73;;;16.47;;
15645;SDS011;7922;43.622;1.476;2023-03-01T01:30:59;18.40;;;13.63;;
15645;SDS011;7922;43.622;1.476;2023-03-01T01:33:24;17.47;;;12.73;;
15645;SDS011;7922;43.622;1.476;2023-03-01T01:35:50;19.10;;;13.93;;
15645;SDS011;7922;43.622;1.476;2023-03-01T01:38:15;20.03;;;13.90;;
15645;SDS011;7922;43.622;1.476;2023-03-01T01:40:44;21.47;;;15.27;;
15645;SDS011;7922;43.622;1.476;2023-03-01T01:43:27;21.90;;;13.57;;
15645;SDS011;7922;43.622;1.476;2023-03-01T01:46:02;22.63;;;15.97;;
15645;SDS011;7922;43.622;1.476;2023-03-01T01:48:40;25.07;;;16.10;;
15645;SDS011;7922;43.622;1.476;2023-03-01T01:51:13;26.27;;;15.77;;
15645;SDS011;7922;43.622;1.476;2023-03-01T01:53:43;26.73;;;15.90;;
15645;SDS011;7922;43.622;1.476;2023-03-01T01:56:13;27.77;;;17.77;;
15645;SDS011;7922;43.622;1.476;2023-03-01T01:58:40;25.67;;;16.07;;
15645;SDS011;7922;43.622;1.476;2023-03-01T02:01:08;22.53;;;15.23;;
15645;SDS011;7922;43.622;1.476;2023-03-01T02:03:33;22.77;;;14.70;;
15645;SDS011;7922;43.622;1.476;2023-03-01T02:08:37;22.73;;;16.73;;
15645;SDS011;7922;43.622;1.476;2023-03-01T02:11:05;20.27;;;15.17;;
15645;SDS011;7922;43.622;1.476;2023-03-01T02:13:31;21.03;;;15.33;;
15645;SDS011;7922;43.622;1.476;2023-03-01T02:15:58;24.57;;;16.63;;
15645;SDS011;7922;43.622;1.476;2023-03-01T02:18:23;24.27;;;16.50;;
15645;SDS011;7922;43.622;1.476;2023-03-01T02:23:39;23.43;;;16.83;;
15645;SDS011;7922;43.622;1.476;2023-03-01T02:28:42;22.00;;;16.53;;
15645;SDS011;7922;43.622;1.476;2023-03-01T02:31:09;22.43;;;15.80;;
15645;SDS011;7922;43.622;1.476;2023-03-01T02:33:39;20.03;;;15.40;;
15645;SDS011;7922;43.622;1.476;2023-03-01T02:36:07;21.80;;;15.97;;
15645;SDS011;7922;43.622;1.476;2023-03-01T02:38:35;21.60;;;16.90;;
15645;SDS011;7922;43.622;1.476;2023-03-01T02:41:00;21.63;;;16.37;;
15645;SDS011;7922;43.622;1.476;2023-03-01T02:43:27;22.40;;;16.37;;
15645;SDS011;7922;43.622;1.476;2023-03-01T02:46:05;23.20;;;16.30;;
15645;SDS011;7922;43.622;1.476;2023-03-01T02:48:46;19.27;;;14.97;;
15645;SDS011;7922;43.622;1.476;2023-03-01T02:56:40;21.77;;;15.83;;
15645;SDS011;7922;43.622;1.476;2023-03-01T02:59:07;20.70;;;15.40;;
15645;SDS011;7922;43.622;1.476;2023-03-01T03:01:33;20.50;;;15.53;;
15645;SDS011;7922;43.622;1.476;2023-03-01T03:03:59;21.43;;;15.60;;
15645;SDS011;7922;43.622;1.476;2023-03-01T03:06:25;22.57;;;15.47;;
15645;SDS011;7922;43.622;1.476;2023-03-01T03:08:50;22.43;;;16.60;;
15645;SDS011;7922;43.622;1.476;2023-03-01T03:11:15;21.50;;;15.77;;
15645;SDS011;7922;43.622;1.476;2023-03-01T03:13:41;22.10;;;15.47;;
15645;SDS011;7922;43.622;1.476;2023-03-01T03:16:06;20.97;;;15.70;;
15645;SDS011;7922;43.622;1.476;2023-03-01T03:18:31;20.07;;;15.23;;
15645;SDS011;7922;43.622;1.476;2023-03-01T03:20:57;23.13;;;15.27;;
15645;SDS011;7922;43.622;1.476;2023-03-01T03:23:22;21.03;;;15.97;;
15645;SDS011;7922;43.622;1.476;2023-03-01T03:25:48;18.83;;;15.13;;
15645;SDS011;7922;43.622;1.476;2023-03-01T03:28:15;23.50;;;16.23;;
15645;SDS011;7922;43.622;1.476;2023-03-01T03:30:40;19.27;;;14.97;;
15645;SDS011;7922;43.622;1.476;2023-03-01T03:33:06;21.13;;;15.23;;
15645;SDS011;7922;43.622;1.476;2023-03-01T03:35:37;23.70;;;15.87;;
15645;SDS011;7922;43.622;1.476;2023-03-01T03:38:06;19.13;;;15.40;;
15645;SDS011;7922;43.622;1.476;2023-03-01T03:40:37;21.00;;;15.83;;
15645;SDS011;7922;43.622;1.476;2023-03-01T03:43:05;20.00;;;15.93;;
15645;SDS011;7922;43.622;1.476;2023-03-01T03:45:35;20.10;;;15.17;;
15645;SDS011;7922;43.622;1.476;2023-03-01T03:48:01;22.77;;;16.37;;
15645;SDS011;7922;43.622;1.476;2023-03-01T03:50:28;20.33;;;14.77;;
15645;SDS011;7922;43.622;1.476;2023-03-01T03:52:54;18.30;;;14.53;;
15645;SDS011;7922;43.622;1.476;2023-03-01T03:55:19;19.13;;;14.87;;
15645;SDS011;7922;43.622;1.476;2023-03-01T03:57:45;21.90;;;15.57;;
15645;SDS011;7922;43.622;1.476;2023-03-01T04:00:12;19.43;;;15.57;;
15645;SDS011;7922;43.622;1.476;2023-03-01T04:02:41;18.10;;;15.13;;
15645;SDS011;7922;43.622;1.476;2023-03-01T04:05:08;19.33;;;15.77;;
15645;SDS011;7922;43.622;1.476;2023-03-01T04:07:35;20.20;;;14.97;;
15645;SDS011;7922;43.622;1.476;2023-03-01T04:10:02;20.10;;;14.80;;
15645;SDS011;7922;43.622;1.476;2023-03-01T04:12:28;19.07;;;14.67;;
15645;SDS011;7922;43.622;1.476;2023-03-01T04:14:53;20.73;;;16.13;;
15645;SDS011;7922;43.622;1.476;2023-03-01T04:17:19;20.83;;;15.70;;
15645;SDS011;7922;43.622;1.476;2023-03-01T04:19:44;18.60;;;15.13;;
15645;SDS011;7922;43.622;1.476;2023-03-01T04:22:09;18.90;;;15.67;;
15645;SDS011;7922;43.622;1.476;2023-03-01T04:24:35;24.00;;;15.23;;
15645;SDS011;7922;43.622;1.476;2023-03-01T04:27:01;18.80;;;15.20;;
15645;SDS011;7922;43.622;1.476;2023-03-01T04:29:26;19.23;;;15.07;;
15645;SDS011;7922;43.622;1.476;2023-03-01T04:31:51;19.27;;;15.00;;
15645;SDS011;7922;43.622;1.476;2023-03-01T04:34:17;18.27;;;14.57;;
15645;SDS011;7922;43.622;1.476;2023-03-01T04:36:42;20.07;;;15.83;;
15645;SDS011;7922;43.622;1.476;2023-03-01T04:39:07;19.93;;;14.67;;
15645;SDS011;7922;43.622;1.476;2023-03-01T04:41:33;19.90;;;15.37;;
15645;SDS011;7922;43.622;1.476;2023-03-01T04:43:58;18.50;;;14.27;;
15645;SDS011;7922;43.622;1.476;2023-03-01T04:46:23;19.80;;;15.30;;
15645;SDS011;7922;43.622;1.476;2023-03-01T04:48:48;21.70;;;15.10;;
15645;SDS011;7922;43.622;1.476;2023-03-01T04:51:14;19.67;;;15.73;;
15645;SDS011;7922;43.622;1.476;2023-03-01T04:53:40;20.43;;;14.27;;
15645;SDS011;7922;43.622;1.476;2023-03-01T04:56:06;21.03;;;15.27;;
15645;SDS011;7922;43.622;1.476;2023-03-01T04:58:31;21.47;;;15.90;;
15645;SDS011;7922;43.622;1.476;2023-03-01T05:00:57;20.57;;;14.70;;
15645;SDS011;7922;43.622;1.476;2023-03-01T05:03:22;20.80;;;14.53;;
15645;SDS011;7922;43.622;1.476;2023-03-01T05:05:48;19.90;;;15.40;;
15645;SDS011;7922;43.622;1.476;2023-03-01T05:08:15;22.20;;;15.60;;
15645;SDS011;7922;43.622;1.476;2023-03-01T05:10:41;18.47;;;14.90;;
15645;SDS011;7922;43.622;1.476;2023-03-01T05:13:06;19.47;;;14.57;;
15645;SDS011;7922;43.622;1.476;2023-03-01T05:15:31;18.00;;;13.90;;
15645;SDS011;7922;43.622;1.476;2023-03-01T05:17:58;20.57;;;14.87;;
15645;SDS011;7922;43.622;1.476;2023-03-01T05:20:25;19.63;;;15.73;;
15645;SDS011;7922;43.622;1.476;2023-03-01T05:22:51;18.40;;;13.57;;
15645;SDS011;7922;43.622;1.476;2023-03-01T05:25:19;17.60;;;13.90;;
15645;SDS011;7922;43.622;1.476;2023-03-01T05:27:44;21.70;;;15.37;;
15645;SDS011;7922;43.622;1.476;2023-03-01T05:30:10;18.43;;;13.50;;
15645;SDS011;7922;43.622;1.476;2023-03-01T05:32:36;16.43;;;13.80;;
15645;SDS011;7922;43.622;1.476;2023-03-01T05:35:01;17.60;;;13.80;;
15645;SDS011;7922;43.622;1.476;2023-03-01T05:37:26;20.57;;;13.87;;
15645;SDS011;7922;43.622;1.476;2023-03-01T05:39:51;18.80;;;14.03;;
15645;SDS011;7922;43.622;1.476;2023-03-01T05:42:17;17.83;;;14.27;;
15645;SDS011;7922;43.622;1.476;2023-03-01T05:44:42;18.37;;;13.80;;
15645;SDS011;7922;43.622;1.476;2023-03-01T05:47:07;18.23;;;14.27;;
15645;SDS011;7922;43.622;1.476;2023-03-01T05:49:33;17.90;;;13.50;;
15645;SDS011;7922;43.622;1.476;2023-03-01T05:51:58;18.73;;;15.00;;
15645;SDS011;7922;43.622;1.476;2023-03-01T05:54:23;17.47;;;13.63;;
15645;SDS011;7922;43.622;1.476;2023-03-01T05:56:48;20.23;;;14.50;;
15645;SDS011;7922;43.622;1.476;2023-03-01T05:59:14;19.17;;;14.00;;
15645;SDS011;7922;43.622;1.476;2023-03-01T06:01:40;20.77;;;14.70;;
15645;SDS011;7922;43.622;1.476;2023-03-01T06:04:05;17.87;;;13.37;;
15645;SDS011;7922;43.622;1.476;2023-03-01T06:06:34;18.17;;;13.50;;
15645;SDS011;7922;43.622;1.476;2023-03-01T06:09:01;17.60;;;13.67;;
15645;SDS011;7922;43.622;1.476;2023-03-01T06:11:26;20.77;;;13.80;;
15645;SDS011;7922;43.622;1.476;2023-03-01T06:13:51;17.17;;;13.77;;
15645;SDS011;7922;43.622;1.476;2023-03-01T06:16:16;19.60;;;13.07;;
15645;SDS011;7922;43.622;1.476;2023-03-01T06:18:42;18.97;;;13.23;;
15645;SDS011;7922;43.622;1.476;2023-03-01T06:21:08;17.87;;;13.90;;
15645;SDS011;7922;43.622;1.476;2023-03-01T06:23:34;18.73;;;13.97;;
15645;SDS011;7922;43.622;1.476;2023-03-01T06:25:59;15.20;;;12.87;;
15645;SDS011;7922;43.622;1.476;2023-03-01T06:28:25;18.43;;;13.97;;
15645;SDS011;7922;43.622;1.476;2023-03-01T06:30:51;16.37;;;13.20;;
15645;SDS011;7922;43.622;1.476;2023-03-01T06:33:17;19.87;;;13.53;;
15645;SDS011;7922;43.622;1.476;2023-03-01T06:35:43;16.73;;;13.43;;
15645;SDS011;7922;43.622;1.476;2023-03-01T06:38:08;17.97;;;13.50;;
15645;SDS011;7922;43.622;1.476;2023-03-01T06:40:34;19.13;;;14.10;;
15645;SDS011;7922;43.622;1.476;2023-03-01T06:42:59;16.67;;;13.77;;
15645;SDS011;7922;43.622;1.476;2023-03-01T06:45:24;17.90;;;12.40;;
15645;SDS011;7922;43.622;1.476;2023-03-01T06:47:50;18.33;;;13.57;;
15645;SDS011;7922;43.622;1.476;2023-03-01T06:50:16;16.23;;;13.40;;
15645;SDS011;7922;43.622;1.476;2023-03-01T06:52:42;21.83;;;13.07;;
15645;SDS011;7922;43.622;1.476;2023-03-01T06:55:08;17.73;;;13.00;;
15645;SDS011;7922;43.622;1.476;2023-03-01T06:57:33;19.63;;;13.23;;
15645;SDS011;7922;43.622;1.476;2023-03-01T06:59:58;19.90;;;13.90;;
15645;SDS011;7922;43.622;1.476;2023-03-01T07:02:24;21.30;;;14.43;;
15645;SDS011;7922;43.622;1.476;2023-03-01T07:04:50;21.70;;;16.70;;
15645;SDS011;7922;43.622;1.476;2023-03-01T07:07:16;23.80;;;15.10;;
15645;SDS011;7922;43.622;1.476;2023-03-01T07:09:42;20.67;;;13.93;;
15645;SDS011;7922;43.622;1.476;2023-03-01T07:12:07;21.77;;;13.70;;
15645;SDS011;7922;43.622;1.476;2023-03-01T07:14:32;22.87;;;14.67;;
15645;SDS011;7922;43.622;1.476;2023-03-01T07:16:58;19.13;;;14.17;;
15645;SDS011;7922;43.622;1.476;2023-03-01T07:19:23;21.60;;;13.53;;
15645;SDS011;7922;43.622;1.476;2023-03-01T07:21:49;22.93;;;13.40;;
15645;SDS011;7922;43.622;1.476;2023-03-01T07:24:14;21.47;;;13.67;;
15645;SDS011;7922;43.622;1.476;2023-03-01T07:26:39;26.20;;;14.17;;
15645;SDS011;7922;43.622;1.476;2023-03-01T07:29:05;29.47;;;14.30;;
15645;SDS011;7922;43.622;1.476;2023-03-01T07:31:32;20.67;;;15.03;;
15645;SDS011;7922;43.622;1.476;2023-03-01T07:33:57;24.03;;;15.17;;
15645;SDS011;7922;43.622;1.476;2023-03-01T07:36:23;19.27;;;14.60;;
15645;SDS011;7922;43.622;1.476;2023-03-01T07:38:49;24.53;;;15.67;;
15645;SDS011;7922;43.622;1.476;2023-03-01T07:41:15;24.07;;;16.40;;
15645;SDS011;7922;43.622;1.476;2023-03-01T07:43:40;24.73;;;15.53;;
15645;SDS011;7922;43.622;1.476;2023-03-01T07:46:05;22.57;;;15.13;;
15645;SDS011;7922;43.622;1.476;2023-03-01T07:48:31;25.13;;;16.23;;
15645;SDS011;7922;43.622;1.476;2023-03-01T07:50:58;25.13;;;15.47;;
15645;SDS011;7922;43.622;1.476;2023-03-01T07:53:27;21.47;;;16.43;;
15645;SDS011;7922;43.622;1.476;2023-03-01T07:58:30;22.07;;;15.13;;
15645;SDS011;7922;43.622;1.476;2023-03-01T08:00:55;23.27;;;15.00;;
15645;SDS011;7922;43.622;1.476;2023-03-01T08:03:20;18.87;;;14.77;;
15645;SDS011;7922;43.622;1.476;2023-03-01T08:05:46;18.77;;;14.07;;
15645;SDS011;7922;43.622;1.476;2023-03-01T08:08:11;17.23;;;14.33;;
15645;SDS011;7922;43.622;1.476;2023-03-01T08:10:36;17.17;;;14.83;;
15645;SDS011;7922;43.622;1.476;2023-03-01T08:13:01;19.83;;;14.83;;
15645;SDS011;7922;43.622;1.476;2023-03-01T08:15:27;18.43;;;14.53;;
15645;SDS011;7922;43.622;1.476;2023-03-01T08:17:52;23.57;;;15.40;;
15645;SDS011;7922;43.622;1.476;2023-03-01T08:20:18;24.50;;;14.97;;
15645;SDS011;7922;43.622;1.476;2023-03-01T08:22:43;23.90;;;15.70;;
15645;SDS011;7922;43.622;1.476;2023-03-01T08:25:08;18.07;;;14.40;;
15645;SDS011;7922;43.622;1.476;2023-03-01T08:27:33;24.33;;;14.43;;
15645;SDS011;7922;43.622;1.476;2023-03-01T08:29:59;20.77;;;14.80;;
15645;SDS011;7922;43.622;1.476;2023-03-01T08:32:24;20.60;;;14.50;;
15645;SDS011;7922;43.622;1.476;2023-03-01T08:34:49;19.20;;;14.63;;
15645;SDS011;7922;43.622;1.476;2023-03-01T08:37:15;17.80;;;14.23;;
15645;SDS011;7922;43.622;1.476;2023-03-01T08:39:40;14.07;;;12.30;;
15645;SDS011;7922;43.622;1.476;2023-03-01T08:42:05;13.83;;;10.77;;
15645;SDS011;7922;43.622;1.476;2023-03-01T08:44:30;14.33;;;11.17;;
15645;SDS011;7922;43.622;1.476;2023-03-01T08:46:56;12.30;;;10.77;;
15645;SDS011;7922;43.622;1.476;2023-03-01T08:49:21;14.43;;;11.27;;
15645;SDS011;7922;43.622;1.476;2023-03-01T08:51:46;14.73;;;11.47;;
15645;SDS011;7922;43.622;1.476;2023-03-01T08:54:13;14.23;;;12.20;;
15645;SDS011;7922;43.622;1.476;2023-03-01T08:56:43;13.03;;;11.73;;
15645;SDS011;7922;43.622;1.476;2023-03-01T08:59:12;13.37;;;10.83;;
15645;SDS011;7922;43.622;1.476;2023-03-01T09:01:39;14.60;;;11.27;;
15645;SDS011;7922;43.622;1.476;2023-03-01T09:04:05;13.60;;;11.50;;
15645;SDS011;7922;43.622;1.476;2023-03-01T09:06:33;14.20;;;11.33;;
15645;SDS011;7922;43.622;1.476;2023-03-01T09:08:58;15.27;;;11.33;;
15645;SDS011;7922;43.622;1.476;2023-03-01T09:11:24;12.57;;;11.27;;
15645;SDS011;7922;43.622;1.476;2023-03-01T09:13:50;13.90;;;11.43;;
15645;SDS011;7922;43.622;1.476;2023-03-01T09:16:16;11.73;;;10.53;;
15645;SDS011;7922;43.622;1.476;2023-03-01T09:18:43;12.97;;;10.67;;
15645;SDS011;7922;43.622;1.476;2023-03-01T09:21:10;13.90;;;10.70;;
15645;SDS011;7922;43.622;1.476;2023-03-01T09:23:41;12.73;;;10.97;;
15645;SDS011;7922;43.622;1.476;2023-03-01T09:26:10;13.07;;;11.00;;
15645;SDS011;7922;43.622;1.476;2023-03-01T09:28:38;14.23;;;11.77;;
15645;SDS011;7922;43.622;1.476;2023-03-01T09:31:04;12.63;;;11.13;;
15645;SDS011;7922;43.622;1.476;2023-03-01T09:33:30;14.83;;;11.70;;
15645;SDS011;7922;43.622;1.476;2023-03-01T09:35:57;11.97;;;10.73;;
15645;SDS011;7922;43.622;1.476;2023-03-01T09:38:28;14.60;;;11.20;;
15645;SDS011;7922;43.622;1.476;2023-03-01T09:40:53;12.30;;;10.93;;
15645;SDS011;7922;43.622;1.476;2023-03-01T09:46:15;11.07;;;9.27;;
15645;SDS011;7922;43.622;1.476;2023-03-01T09:48:45;10.87;;;9.77;;
15645;SDS011;7922;43.622;1.476;2023-03-01T09:51:18;11.53;;;9.90;;
15645;SDS011;7922;43.622;1.476;2023-03-01T09:53:49;10.00;;;9.00;;
15645;SDS011;7922;43.622;1.476;2023-03-01T09:56:19;10.43;;;9.37;;
15645;SDS011;7922;43.622;1.476;2023-03-01T10:04:45;10.67;;;8.03;;
15645;SDS011;7922;43.622;1.476;2023-03-01T10:10:07;10.00;;;9.00;;
15645;SDS011;7922;43.622;1.476;2023-03-01T10:12:37;10.27;;;8.97;;
15645;SDS011;7922;43.622;1.476;2023-03-01T10:20:14;9.63;;;8.60;;
15645;SDS011;7922;43.622;1.476;2023-03-01T10:23:00;12.40;;;7.70;;
15645;SDS011;7922;43.622;1.476;2023-03-01T10:30:54;9.03;;;7.93;;
15645;SDS011;7922;43.622;1.476;2023-03-01T10:33:23;7.97;;;7.27;;
15645;SDS011;7922;43.622;1.476;2023-03-01T10:35:51;8.20;;;6.97;;
15645;SDS011;7922;43.622;1.476;2023-03-01T10:38:17;7.77;;;7.07;;
15645;SDS011;7922;43.622;1.476;2023-03-01T10:40:53;8.53;;;7.30;;
15645;SDS011;7922;43.622;1.476;2023-03-01T10:43:20;7.80;;;7.10;;
15645;SDS011;7922;43.622;1.476;2023-03-01T10:45:46;7.83;;;7.10;;
15645;SDS011;7922;43.622;1.476;2023-03-01T10:48:16;7.70;;;6.90;;
15645;SDS011;7922;43.622;1.476;2023-03-01T10:50:47;8.53;;;7.43;;
15645;SDS011;7922;43.622;1.476;2023-03-01T10:53:21;8.43;;;7.63;;
15645;SDS011;7922;43.622;1.476;2023-03-01T10:58:32;8.57;;;7.77;;
15645;SDS011;7922;43.622;1.476;2023-03-01T11:01:03;8.20;;;7.40;;
15645;SDS011;7922;43.622;1.476;2023-03-01T11:08:39;8.10;;;7.37;;
15645;SDS011;7922;43.622;1.476;2023-03-01T11:16:26;8.10;;;7.30;;
15645;SDS011;7922;43.622;1.476;2023-03-01T11:19:07;8.90;;;8.00;;
15645;SDS011;7922;43.622;1.476;2023-03-01T11:24:11;8.83;;;7.93;;
15645;SDS011;7922;43.622;1.476;2023-03-01T11:26:40;8.47;;;7.60;;
15645;SDS011;7922;43.622;1.476;2023-03-01T11:29:12;8.57;;;7.67;;
15645;SDS011;7922;43.622;1.476;2023-03-01T11:32:08;8.57;;;7.70;;
15645;SDS011;7922;43.622;1.476;2023-03-01T11:34:39;8.03;;;7.27;;
15645;SDS011;7922;43.622;1.476;2023-03-01T11:37:34;8.50;;;7.70;;
15645;SDS011;7922;43.622;1.476;2023-03-01T11:40:17;10.13;;;8.03;;
15645;SDS011;7922;43.622;1.476;2023-03-01T11:50:58;8.97;;;7.70;;
15645;SDS011;7922;43.622;1.476;2023-03-01T11:53:42;8.40;;;7.33;;
15645;SDS011;7922;43.622;1.476;2023-03-01T11:56:24;7.33;;;6.63;;
15645;SDS011;7922;43.622;1.476;2023-03-01T12:01:45;7.57;;;6.87;;
15645;SDS011;7922;43.622;1.476;2023-03-01T12:14:36;7.10;;;6.50;;
15645;SDS011;7922;43.622;1.476;2023-03-01T12:17:29;7.10;;;6.40;;
15645;SDS011;7922;43.622;1.476;2023-03-01T12:22:35;7.30;;;6.27;;
15645;SDS011;7922;43.622;1.476;2023-03-01T12:25:16;6.63;;;5.93;;
15645;SDS011;7922;43.622;1.476;2023-03-01T12:28:08;8.00;;;6.53;;
15645;SDS011;7922;43.622;1.476;2023-03-01T12:50:23;6.93;;;6.23;;
15645;SDS011;7922;43.622;1.476;2023-03-01T12:52:51;7.10;;;6.40;;
15645;SDS011;7922;43.622;1.476;2023-03-01T12:55:36;7.20;;;6.50;;
15645;SDS011;7922;43.622;1.476;2023-03-01T13:06:38;7.90;;;6.57;;
15645;SDS011;7922;43.622;1.476;2023-03-01T13:11:43;7.03;;;6.43;;
15645;SDS011;7922;43.622;1.476;2023-03-01T13:16:46;6.80;;;6.10;;
15645;SDS011;7922;43.622;1.476;2023-03-01T13:19:16;6.20;;;5.70;;
15645;SDS011;7922;43.622;1.476;2023-03-01T13:21:45;7.53;;;6.83;;
15645;SDS011;7922;43.622;1.476;2023-03-01T13:24:27;7.17;;;6.57;;
15645;SDS011;7922;43.622;1.476;2023-03-01T13:29:49;7.50;;;6.80;;
15645;SDS011;7922;43.622;1.476;2023-03-01T13:32:26;6.53;;;5.93;;
15645;SDS011;7922;43.622;1.476;2023-03-01T13:34:56;6.50;;;6.00;;
15645;SDS011;7922;43.622;1.476;2023-03-01T13:37:24;7.40;;;6.63;;
15645;SDS011;7922;43.622;1.476;2023-03-01T13:39:51;6.43;;;5.83;;
15645;SDS011;7922;43.622;1.476;2023-03-01T13:45:14;8.47;;;6.60;;
15645;SDS011;7922;43.622;1.476;2023-03-01T13:48:01;6.30;;;5.40;;
15645;SDS011;7922;43.622;1.476;2023-03-01T13:50:33;6.57;;;5.97;;
15645;SDS011;7922;43.622;1.476;2023-03-01T13:53:09;7.00;;;6.30;;
15645;SDS011;7922;43.622;1.476;2023-03-01T13:55:42;6.73;;;6.03;;
15645;SDS011;7922;43.622;1.476;2023-03-01T13:58:18;6.43;;;5.83;;
15645;SDS011;7922;43.622;1.476;2023-03-01T14:00:55;7.80;;;5.80;;
15645;SDS011;7922;43.622;1.476;2023-03-01T14:03:30;6.77;;;6.17;;
15645;SDS011;7922;43.622;1.476;2023-03-01T14:06:05;7.73;;;6.37;;
15645;SDS011;7922;43.622;1.476;2023-03-01T14:08:32;7.17;;;6.27;;
15645;SDS011;7922;43.622;1.476;2023-03-01T14:19:03;6.80;;;6.20;;
15645;SDS011;7922;43.622;1.476;2023-03-01T14:21:29;7.90;;;5.97;;
15645;SDS011;7922;43.622;1.476;2023-03-01T14:23:55;8.27;;;6.53;;
15645;SDS011;7922;43.622;1.476;2023-03-01T14:26:22;7.00;;;6.30;;
15645;SDS011;7922;43.622;1.476;2023-03-01T14:28:48;6.60;;;6.00;;
15645;SDS011;7922;43.622;1.476;2023-03-01T14:31:48;6.50;;;5.87;;
15645;SDS011;7922;43.622;1.476;2023-03-01T14:34:16;7.53;;;6.93;;
15645;SDS011;7922;43.622;1.476;2023-03-01T14:36:46;5.97;;;5.47;;
15645;SDS011;7922;43.622;1.476;2023-03-01T14:39:19;6.67;;;6.07;;
15645;SDS011;7922;43.622;1.476;2023-03-01T14:41:48;6.60;;;6.00;;
15645;SDS011;7922;43.622;1.476;2023-03-01T14:44:15;7.60;;;6.40;;
15645;SDS011;7922;43.622;1.476;2023-03-01T14:46:46;6.87;;;6.20;;
15645;SDS011;7922;43.622;1.476;2023-03-01T14:51:40;6.23;;;5.57;;
15645;SDS011;7922;43.622;1.476;2023-03-01T14:54:51;7.33;;;6.63;;
15645;SDS011;7922;43.622;1.476;2023-03-01T14:57:12;6.70;;;6.00;;
15645;SDS011;7922;43.622;1.476;2023-03-01T14:59:40;6.70;;;6.07;;
15645;SDS011;7922;43.622;1.476;2023-03-01T15:02:08;8.10;;;5.60;;
15645;SDS011;7922;43.622;1.476;2023-03-01T15:04:39;6.80;;;6.20;;
15645;SDS011;7922;43.622;1.476;2023-03-01T15:07:09;7.30;;;5.90;;
15645;SDS011;7922;43.622;1.476;2023-03-01T15:09:39;6.67;;;5.80;;
15645;SDS011;7922;43.622;1.476;2023-03-01T15:17:48;6.70;;;6.10;;
15645;SDS011;7922;43.622;1.476;2023-03-01T15:20:20;6.13;;;5.63;;
15645;SDS011;7922;43.622;1.476;2023-03-01T15:22:47;7.00;;;5.80;;
15645;SDS011;7922;43.622;1.476;2023-03-01T15:25:14;5.83;;;5.30;;
15645;SDS011;7922;43.622;1.476;2023-03-01T15:27:44;7.03;;;6.33;;
15645;SDS011;7922;43.622;1.476;2023-03-01T15:32:45;7.10;;;6.40;;
15645;SDS011;7922;43.622;1.476;2023-03-01T15:38:00;6.67;;;5.97;;
15645;SDS011;7922;43.622;1.476;2023-03-01T15:40:27;6.23;;;5.63;;
15645;SDS011;7922;43.622;1.476;2023-03-01T15:42:54;6.10;;;5.60;;
15645;SDS011;7922;43.622;1.476;2023-03-01T15:45:23;6.03;;;5.43;;
15645;SDS011;7922;43.622;1.476;2023-03-01T15:47:51;8.03;;;6.73;;
15645;SDS011;7922;43.622;1.476;2023-03-01T15:50:24;7.97;;;5.90;;
15645;SDS011;7922;43.622;1.476;2023-03-01T15:52:52;6.37;;;5.80;;
15645;SDS011;7922;43.622;1.476;2023-03-01T15:55:19;6.67;;;6.00;;
15645;SDS011;7922;43.622;1.476;2023-03-01T15:57:46;6.30;;;5.70;;
15645;SDS011;7922;43.622;1.476;2023-03-01T16:00:13;5.97;;;5.47;;
15645;SDS011;7922;43.622;1.476;2023-03-01T16:02:40;6.33;;;5.77;;
15645;SDS011;7922;43.622;1.476;2023-03-01T16:05:10;7.07;;;6.47;;
15645;SDS011;7922;43.622;1.476;2023-03-01T16:07:47;6.17;;;5.67;;
15645;SDS011;7922;43.622;1.476;2023-03-01T16:10:13;6.13;;;5.63;;
15645;SDS011;7922;43.622;1.476;2023-03-01T16:12:39;6.90;;;6.20;;
15645;SDS011;7922;43.622;1.476;2023-03-01T16:15:04;7.10;;;6.40;;
15645;SDS011;7922;43.622;1.476;2023-03-01T16:17:38;6.87;;;6.27;;
15645;SDS011;7922;43.622;1.476;2023-03-01T16:20:03;7.40;;;6.57;;
15645;SDS011;7922;43.622;1.476;2023-03-01T16:22:29;7.37;;;6.67;;
15645;SDS011;7922;43.622;1.476;2023-03-01T16:24:54;7.00;;;6.30;;
15645;SDS011;7922;43.622;1.476;2023-03-01T16:27:20;6.83;;;6.20;;
15645;SDS011;7922;43.622;1.476;2023-03-01T16:29:45;7.40;;;6.67;;
15645;SDS011;7922;43.622;1.476;2023-03-01T16:32:10;6.60;;;6.10;;
15645;SDS011;7922;43.622;1.476;2023-03-01T16:34:35;6.77;;;6.07;;
15645;SDS011;7922;43.622;1.476;2023-03-01T16:37:01;7.23;;;6.07;;
15645;SDS011;7922;43.622;1.476;2023-03-01T16:39:26;7.20;;;6.60;;
15645;SDS011;7922;43.622;1.476;2023-03-01T16:41:51;7.10;;;6.13;;
15645;SDS011;7922;43.622;1.476;2023-03-01T16:44:17;7.57;;;6.87;;
15645;SDS011;7922;43.622;1.476;2023-03-01T16:46:42;7.87;;;7.07;;
15645;SDS011;7922;43.622;1.476;2023-03-01T16:49:07;8.07;;;7.17;;
15645;SDS011;7922;43.622;1.476;2023-03-01T16:51:32;9.10;;;7.20;;
15645;SDS011;7922;43.622;1.476;2023-03-01T16:53:58;10.13;;;7.50;;
15645;SDS011;7922;43.622;1.476;2023-03-01T16:56:23;8.63;;;7.67;;
15645;SDS011;7922;43.622;1.476;2023-03-01T16:58:48;8.00;;;7.23;;
15645;SDS011;7922;43.622;1.476;2023-03-01T17:01:15;7.90;;;7.10;;
15645;SDS011;7922;43.622;1.476;2023-03-01T17:03:43;8.33;;;7.63;;
15645;SDS011;7922;43.622;1.476;2023-03-01T17:06:10;8.33;;;7.53;;